createdAt,value
2022-11-05T00:01:49.544Z,7.10
2022-11-05T00:04:38.289Z,8.60
2022-11-05T00:07:30.274Z,7.00
2022-11-05T00:10:04.946Z,7.90
2022-11-05T00:12:53.436Z,6.60
2022-11-05T00:15:41.949Z,9.90
2022-11-05T00:18:12.711Z,5.30
2022-11-05T00:20:43.419Z,8.70
2022-11-05T00:23:31.884Z,10.30
2022-11-05T00:26:04.558Z,10.30
2022-11-05T00:28:36.032Z,7.60
2022-11-05T00:31:10.775Z,9.60
2022-11-05T00:33:42.908Z,9.10
2022-11-05T00:36:13.752Z,10.20
2022-11-05T00:38:44.424Z,10.70
2022-11-05T00:41:15.126Z,10.30
2022-11-05T00:44:03.668Z,8.60
2022-11-05T00:46:34.305Z,11.30
2022-11-05T00:49:22.980Z,9.60
2022-11-05T00:52:13.602Z,10.20
2022-11-05T00:54:44.338Z,10.50
2022-11-05T00:57:15.125Z,11.00
2022-11-05T00:59:45.744Z,10.20
2022-11-05T01:02:16.655Z,12.30
2022-11-05T01:04:47.686Z,8.00
2022-11-05T01:07:18.692Z,10.70
2022-11-05T01:09:49.380Z,9.50
2022-11-05T01:12:20.033Z,11.90
2022-11-05T01:14:51.000Z,10.80
2022-11-05T01:17:21.729Z,11.80
2022-11-05T01:19:52.581Z,10.90
2022-11-05T01:22:23.157Z,11.90
2022-11-05T01:24:53.765Z,12.40
2022-11-05T01:27:24.845Z,11.90
2022-11-05T01:29:55.673Z,11.60
2022-11-05T01:32:26.614Z,12.50
2022-11-05T01:34:57.250Z,10.90
2022-11-05T01:37:27.944Z,12.40
2022-11-05T01:39:58.640Z,7.40
2022-11-05T01:42:29.979Z,12.90
2022-11-05T01:45:03.269Z,7.90
2022-11-05T01:47:41.066Z,11.40
2022-11-05T01:50:24.178Z,10.10
2022-11-05T01:53:00.517Z,9.10
2022-11-05T01:55:36.031Z,13.70
2022-11-05T01:58:10.977Z,10.30
2022-11-05T02:00:43.502Z,10.00
2022-11-05T02:03:16.246Z,13.60
2022-11-05T02:05:49.334Z,11.30
2022-11-05T02:08:30.516Z,11.20
2022-11-05T02:11:01.307Z,9.70
2022-11-05T02:13:32.003Z,8.70
2022-11-05T02:16:10.934Z,9.30
2022-11-05T02:18:58.479Z,9.40
2022-11-05T02:22:07.883Z,9.60
2022-11-05T02:25:01.855Z,10.80
2022-11-05T02:28:02.460Z,9.40
2022-11-05T02:30:40.972Z,7.90
2022-11-05T02:33:30.491Z,9.60
2022-11-05T02:36:23.445Z,8.80
2022-11-05T02:39:08.082Z,9.60
2022-11-05T02:41:47.971Z,10.10
2022-11-05T02:44:28.418Z,7.00
2022-11-05T02:47:07.822Z,10.50
2022-11-05T02:49:49.027Z,12.20
2022-11-05T02:52:26.834Z,12.30
2022-11-05T02:55:07.084Z,10.80
2022-11-05T02:57:38.906Z,8.80
2022-11-05T03:00:41.032Z,9.70
2022-11-05T03:03:19.051Z,15.00
2022-11-05T03:06:13.346Z,9.70
2022-11-05T03:08:58.348Z,10.20
2022-11-05T03:11:30.997Z,9.30
2022-11-05T03:16:42.236Z,7.70
2022-11-05T03:19:23.717Z,8.30
2022-11-05T03:21:58.961Z,9.70
2022-11-05T03:24:33.300Z,9.50
2022-11-05T03:27:08.324Z,10.30
2022-11-05T03:29:43.541Z,8.80
2022-11-05T03:32:16.808Z,10.00
2022-11-05T03:34:52.161Z,8.70
2022-11-05T03:37:28.229Z,8.40
2022-11-05T03:40:02.979Z,11.20
2022-11-05T03:42:37.141Z,10.90
2022-11-05T03:45:11.895Z,10.10
2022-11-05T03:47:46.747Z,11.00
2022-11-05T03:50:21.956Z,10.50
2022-11-05T03:52:55.776Z,10.60
2022-11-05T03:55:33.625Z,13.10
2022-11-05T03:58:06.752Z,8.60
2022-11-05T04:00:38.000Z,11.50
2022-11-05T04:03:08.983Z,10.30
2022-11-05T04:05:39.919Z,12.20
2022-11-05T04:08:29.150Z,12.60
2022-11-05T04:11:17.466Z,10.40
2022-11-05T04:13:48.190Z,11.10
2022-11-05T04:16:36.487Z,13.60
2022-11-05T04:19:07.404Z,13.60
2022-11-05T04:22:10.364Z,14.80
2022-11-05T04:24:41.014Z,13.20
2022-11-05T04:27:12.281Z,14.60
2022-11-05T04:30:00.854Z,12.50
2022-11-05T04:32:31.511Z,14.60
2022-11-05T04:35:02.223Z,13.90
2022-11-05T04:37:32.993Z,20.50
2022-11-05T04:40:03.746Z,16.50
2022-11-05T04:42:34.442Z,16.20
2022-11-05T04:45:05.649Z,18.80
2022-11-05T04:47:36.402Z,13.70
2022-11-05T04:50:09.502Z,13.50
2022-11-05T04:52:40.393Z,17.30
2022-11-05T04:55:11.572Z,15.00
2022-11-05T04:57:42.659Z,13.80
2022-11-05T05:00:14.221Z,14.40
2022-11-05T05:02:45.194Z,16.30
2022-11-05T05:05:16.296Z,18.40
2022-11-05T05:07:47.092Z,12.10
2022-11-05T05:10:18.030Z,16.10
2022-11-05T05:12:48.847Z,19.50
2022-11-05T05:15:19.637Z,16.20
2022-11-05T05:17:54.236Z,16.00
2022-11-05T05:20:42.565Z,13.70
2022-11-05T05:23:13.522Z,14.80
2022-11-05T05:25:44.436Z,12.80
2022-11-05T05:28:15.252Z,16.70
2022-11-05T05:30:46.056Z,16.90
2022-11-05T05:33:16.772Z,15.10
2022-11-05T05:35:47.382Z,13.20
2022-11-05T05:38:18.244Z,17.20
2022-11-05T05:40:50.065Z,14.90
2022-11-05T05:43:20.737Z,14.60
2022-11-05T05:45:51.409Z,17.10
2022-11-05T05:48:22.147Z,14.30
2022-11-05T05:50:52.909Z,18.50
2022-11-05T05:53:24.080Z,15.40
2022-11-05T05:55:57.488Z,14.40
2022-11-05T05:58:32.302Z,16.30
2022-11-05T06:01:05.573Z,13.60
2022-11-05T06:03:36.537Z,14.30
2022-11-05T06:06:09.967Z,16.60
2022-11-05T06:08:41.060Z,14.30
2022-11-05T06:11:13.404Z,15.40
2022-11-05T06:13:44.166Z,14.40
2022-11-05T06:16:15.040Z,15.90
2022-11-05T06:18:45.710Z,14.60
2022-11-05T06:21:18.823Z,15.40
2022-11-05T06:23:49.962Z,15.80
2022-11-05T06:26:21.019Z,14.10
2022-11-05T06:28:51.690Z,15.70
2022-11-05T06:31:22.362Z,15.60
2022-11-05T06:33:53.020Z,17.10
2022-11-05T06:36:25.863Z,18.00
2022-11-05T06:38:56.497Z,18.10
2022-11-05T06:41:27.178Z,14.20
2022-11-05T06:43:57.849Z,19.30
2022-11-05T06:46:28.812Z,16.20
2022-11-05T06:48:59.460Z,13.90
2022-11-05T06:51:30.394Z,16.40
2022-11-05T06:54:01.084Z,15.50
2022-11-05T06:56:31.717Z,14.60
2022-11-05T06:59:02.641Z,15.40
2022-11-05T07:01:33.523Z,15.70
2022-11-05T07:04:04.585Z,14.60
2022-11-05T07:06:37.167Z,14.80
2022-11-05T07:09:07.953Z,15.00
2022-11-05T07:11:38.636Z,12.40
2022-11-05T07:14:09.341Z,12.20
2022-11-05T07:16:40.014Z,13.70
2022-11-05T07:19:10.715Z,15.20
2022-11-05T07:21:41.446Z,13.40
2022-11-05T07:24:14.520Z,15.20
2022-11-05T07:26:45.218Z,15.60
2022-11-05T07:29:15.917Z,13.20
2022-11-05T07:31:47.408Z,12.50
2022-11-05T07:34:18.200Z,16.20
2022-11-05T07:36:48.974Z,19.20
2022-11-05T07:39:19.749Z,14.10
2022-11-05T07:41:50.655Z,14.20
2022-11-05T07:44:21.770Z,15.40
2022-11-05T07:46:52.697Z,13.60
2022-11-05T07:49:23.786Z,13.40
2022-11-05T07:51:54.787Z,11.60
2022-11-05T07:54:26.699Z,14.30
2022-11-05T07:56:57.781Z,13.30
2022-11-05T07:59:28.616Z,11.80
2022-11-05T08:01:59.523Z,15.10
2022-11-05T08:04:30.377Z,14.00
2022-11-05T08:07:01.131Z,10.20
2022-11-05T08:09:31.896Z,13.00
2022-11-05T08:12:03.430Z,9.10
2022-11-05T08:14:34.382Z,13.90
2022-11-05T08:17:05.209Z,11.70
2022-11-05T08:19:36.033Z,16.20
2022-11-05T08:22:06.684Z,11.70
2022-11-05T08:24:37.462Z,9.60
2022-11-05T08:27:08.098Z,10.70
2022-11-05T08:29:38.918Z,11.00
2022-11-05T08:32:09.613Z,17.10
2022-11-05T08:34:40.485Z,13.00
2022-11-05T08:37:11.537Z,12.70
2022-11-05T08:39:42.244Z,9.90
2022-11-05T08:42:13.102Z,14.90
2022-11-05T08:44:43.756Z,14.70
2022-11-05T08:47:14.533Z,12.50
2022-11-05T08:49:45.323Z,12.30
2022-11-05T08:52:15.965Z,13.10
2022-11-05T08:54:46.668Z,14.50
2022-11-05T08:57:17.376Z,12.30
2022-11-05T08:59:47.980Z,10.60
2022-11-05T09:02:18.712Z,12.00
2022-11-05T09:04:49.539Z,11.90
2022-11-05T09:07:22.869Z,12.80
2022-11-05T09:09:53.535Z,15.50
2022-11-05T09:12:24.364Z,9.30
2022-11-05T09:14:54.989Z,11.20
2022-11-05T09:17:25.694Z,11.60
2022-11-05T09:19:56.371Z,13.10
2022-11-05T09:22:26.970Z,13.10
2022-11-05T09:24:57.617Z,12.40
2022-11-05T09:27:28.222Z,10.30
2022-11-05T09:29:58.955Z,9.80
2022-11-05T09:32:31.423Z,11.40
2022-11-05T09:35:02.071Z,12.40
2022-11-05T09:37:33.083Z,13.40
2022-11-05T09:40:03.959Z,14.50
2022-11-05T09:42:39.000Z,6.30
2022-11-05T09:45:16.043Z,10.70
2022-11-05T09:47:50.467Z,8.50
2022-11-05T09:50:25.472Z,13.10
2022-11-05T09:52:56.093Z,10.60
2022-11-05T09:55:30.334Z,12.70
2022-11-05T09:58:03.343Z,12.00
2022-11-05T10:00:35.310Z,12.50
2022-11-05T10:03:13.221Z,11.00
2022-11-05T10:05:46.217Z,8.20
2022-11-05T10:08:21.410Z,14.10
2022-11-05T10:10:55.247Z,14.10
2022-11-05T10:13:31.027Z,8.60
2022-11-05T10:16:08.137Z,12.20
2022-11-05T10:18:41.758Z,9.70
2022-11-05T10:21:32.311Z,9.90
2022-11-05T10:24:15.294Z,8.90
2022-11-05T10:26:48.490Z,8.60
2022-11-05T10:29:27.246Z,7.40
2022-11-05T10:31:59.550Z,7.40
2022-11-05T10:34:32.864Z,8.20
2022-11-05T10:37:04.438Z,9.60
2022-11-05T10:39:36.154Z,8.10
2022-11-05T10:42:29.110Z,10.60
2022-11-05T10:45:08.607Z,7.20
2022-11-05T10:47:50.067Z,7.90
2022-11-05T10:50:24.413Z,6.80
2022-11-05T10:53:01.021Z,6.60
2022-11-05T10:55:34.006Z,6.60
2022-11-05T10:58:19.541Z,9.30
2022-11-05T11:01:06.194Z,8.30
2022-11-05T11:03:42.240Z,6.60
2022-11-05T11:06:29.073Z,6.90
2022-11-05T11:09:02.842Z,14.10
2022-11-05T11:11:36.049Z,11.10
2022-11-05T11:14:19.816Z,6.90
2022-11-05T11:16:57.128Z,6.30
2022-11-05T11:19:31.287Z,5.20
2022-11-05T11:22:30.761Z,4.50
2022-11-05T11:25:02.532Z,7.90
2022-11-05T11:27:35.689Z,5.90
2022-11-05T11:30:16.787Z,9.20
2022-11-05T11:32:49.001Z,11.60
2022-11-05T11:35:25.358Z,6.60
2022-11-05T11:38:00.820Z,6.30
2022-11-05T11:40:36.286Z,4.90
2022-11-05T11:43:16.061Z,9.30
2022-11-05T11:45:50.972Z,10.90
2022-11-05T11:48:24.059Z,6.40
2022-11-05T11:50:55.368Z,6.40
2022-11-05T11:53:31.324Z,11.10
2022-11-05T11:56:05.676Z,6.70
2022-11-05T11:58:42.926Z,5.10
2022-11-05T12:01:46.752Z,6.60
2022-11-05T12:04:45.820Z,5.90
2022-11-05T12:07:36.412Z,7.00
2022-11-05T12:10:19.410Z,6.60
2022-11-05T12:13:10.156Z,6.80
2022-11-05T12:15:50.346Z,4.50
2022-11-05T12:18:30.982Z,8.20
2022-11-05T12:21:40.763Z,8.80
2022-11-05T12:24:21.915Z,3.80
2022-11-05T12:27:02.722Z,3.10
2022-11-05T12:29:48.481Z,5.30
2022-11-05T12:32:41.388Z,10.10
2022-11-05T12:35:26.040Z,6.60
2022-11-05T12:40:47.155Z,5.40
2022-11-05T12:43:31.222Z,6.80
2022-11-05T12:46:13.566Z,5.40
2022-11-05T12:48:58.851Z,5.70
2022-11-05T12:51:42.190Z,8.70
2022-11-05T12:54:43.956Z,4.60
2022-11-05T12:57:15.860Z,6.10
2022-11-05T12:59:53.160Z,7.20
2022-11-05T13:02:31.518Z,7.60
2022-11-05T13:05:06.624Z,8.10
2022-11-05T13:07:40.576Z,9.60
2022-11-05T13:10:24.561Z,8.50
2022-11-05T13:13:03.596Z,7.20
2022-11-05T13:15:40.223Z,7.60
2022-11-05T13:18:16.251Z,9.60
2022-11-05T13:20:51.381Z,8.60
2022-11-05T13:23:29.820Z,5.90
2022-11-05T13:26:06.398Z,9.00
2022-11-05T13:28:46.884Z,6.20
2022-11-05T13:31:22.713Z,8.80
2022-11-05T13:33:55.318Z,7.60
2022-11-05T13:39:20.684Z,7.80
2022-11-05T13:42:13.401Z,8.00
2022-11-05T13:45:02.021Z,5.50
2022-11-05T13:47:50.118Z,4.80
2022-11-05T13:50:51.804Z,12.10
2022-11-05T13:53:55.268Z,5.40
2022-11-05T13:56:41.012Z,11.10
2022-11-05T13:59:55.850Z,3.40
2022-11-05T14:02:29.881Z,5.80
2022-11-05T14:05:02.771Z,5.60
2022-11-05T14:07:36.445Z,7.60
2022-11-05T14:10:21.186Z,8.50
2022-11-05T14:12:55.430Z,7.00
2022-11-05T14:15:29.238Z,8.60
2022-11-05T14:18:04.525Z,10.00
2022-11-05T14:20:47.497Z,6.50
2022-11-05T14:23:48.523Z,7.30
2022-11-05T14:26:24.707Z,9.90
2022-11-05T14:29:26.754Z,6.70
2022-11-05T14:32:09.209Z,8.60
2022-11-05T14:34:50.949Z,8.90
2022-11-05T14:37:32.609Z,9.90
2022-11-05T14:40:32.041Z,7.10
2022-11-05T14:43:17.239Z,10.30
2022-11-05T14:45:58.407Z,9.40
2022-11-05T14:48:37.921Z,7.30
2022-11-05T14:51:26.174Z,6.40
2022-11-05T14:54:05.571Z,7.40
2022-11-05T14:56:51.840Z,7.20
2022-11-05T14:59:52.120Z,7.90
2022-11-05T15:02:26.336Z,10.10
2022-11-05T15:05:28.389Z,11.50
2022-11-05T15:08:01.110Z,12.00
2022-11-05T15:13:08.206Z,9.80
2022-11-05T15:15:49.265Z,7.30
2022-11-05T15:18:29.534Z,9.50
2022-11-05T15:21:02.937Z,9.90
2022-11-05T15:23:40.374Z,8.30
2022-11-05T15:26:22.422Z,11.40
2022-11-05T15:28:54.411Z,11.60
2022-11-05T15:31:31.720Z,7.40
2022-11-05T15:34:24.578Z,8.30
2022-11-05T15:36:59.481Z,8.60
2022-11-05T15:39:44.239Z,8.50
2022-11-05T15:44:47.981Z,13.10
2022-11-05T15:47:22.174Z,8.30
2022-11-05T15:49:55.428Z,10.20
2022-11-05T15:52:33.513Z,7.00
2022-11-05T15:55:19.283Z,8.40
2022-11-05T15:57:52.554Z,10.20
2022-11-05T16:00:31.397Z,10.40
2022-11-05T16:03:06.136Z,9.90
2022-11-05T16:05:43.660Z,6.20
2022-11-05T16:08:20.283Z,8.70
2022-11-05T16:10:53.166Z,7.40
2022-11-05T16:13:41.108Z,8.50
2022-11-05T16:16:32.560Z,7.50
2022-11-05T16:19:23.637Z,7.80
2022-11-05T16:21:57.763Z,10.00
2022-11-05T16:24:29.520Z,8.50
2022-11-05T16:27:03.778Z,11.40
2022-11-05T16:29:36.614Z,12.10
2022-11-05T16:32:25.428Z,13.50
2022-11-05T16:35:03.765Z,17.30
2022-11-05T16:37:41.129Z,14.10
2022-11-05T16:40:18.665Z,17.70
2022-11-05T16:42:51.533Z,15.90
2022-11-05T16:45:25.563Z,16.40
2022-11-05T16:47:56.326Z,12.70
2022-11-05T16:50:31.080Z,13.40
2022-11-05T16:53:01.850Z,10.30
2022-11-05T16:55:34.390Z,15.40
2022-11-05T16:58:05.183Z,12.00
2022-11-05T17:00:36.055Z,12.40
2022-11-05T17:03:06.943Z,11.70
2022-11-05T17:05:37.604Z,13.80
2022-11-05T17:08:08.851Z,12.40
2022-11-05T17:10:39.733Z,12.80
2022-11-05T17:13:14.280Z,12.80
2022-11-05T17:15:46.671Z,14.60
2022-11-05T17:18:19.122Z,12.60
2022-11-05T17:20:51.955Z,11.30
2022-11-05T17:23:24.227Z,12.50
2022-11-05T17:25:59.945Z,15.40
2022-11-05T17:28:31.358Z,16.00
2022-11-05T17:31:03.399Z,13.40
2022-11-05T17:33:34.283Z,12.60
2022-11-05T17:36:08.697Z,12.60
2022-11-05T17:38:39.885Z,13.20
2022-11-05T17:41:18.489Z,10.60
2022-11-05T17:43:49.836Z,11.60
2022-11-05T17:46:21.302Z,10.50
2022-11-05T17:48:52.079Z,14.80
2022-11-05T17:51:22.889Z,13.70
2022-11-05T17:53:53.742Z,16.70
2022-11-05T17:56:33.909Z,12.90
2022-11-05T17:59:06.410Z,13.10
2022-11-05T18:01:42.465Z,15.70
2022-11-05T18:04:13.529Z,14.50
2022-11-05T18:06:44.639Z,14.20
2022-11-05T18:09:21.840Z,11.90
2022-11-05T18:11:52.746Z,11.40
2022-11-05T18:14:24.380Z,11.40
2022-11-05T18:17:00.202Z,11.90
2022-11-05T18:19:31.450Z,10.50
2022-11-05T18:22:02.146Z,11.10
2022-11-05T18:24:33.316Z,12.60
2022-11-05T18:27:04.351Z,14.00
2022-11-05T18:29:35.040Z,9.80
2022-11-05T18:32:06.435Z,14.10
2022-11-05T18:34:37.707Z,12.40
2022-11-05T18:37:08.820Z,13.60
2022-11-05T18:39:39.602Z,12.10
2022-11-05T18:42:10.774Z,16.10
2022-11-05T18:44:41.695Z,14.50
2022-11-05T18:47:12.548Z,13.10
2022-11-05T18:49:43.300Z,16.10
2022-11-05T18:52:14.181Z,11.40
2022-11-05T18:54:44.914Z,16.90
2022-11-05T18:57:15.545Z,13.40
2022-11-05T18:59:46.851Z,13.90
2022-11-05T19:02:18.150Z,16.00
2022-11-05T19:05:13.975Z,13.50
2022-11-05T19:07:40.393Z,13.40
2022-11-05T19:10:12.136Z,18.40
2022-11-05T19:12:43.004Z,16.00
2022-11-05T19:15:14.457Z,18.00
2022-11-05T19:17:45.326Z,15.10
2022-11-05T19:20:16.155Z,16.90
2022-11-05T19:22:46.840Z,17.70
2022-11-05T19:25:17.695Z,13.40
2022-11-05T19:27:48.433Z,12.90
2022-11-05T19:30:19.183Z,12.10
2022-11-05T19:32:49.934Z,14.70
2022-11-05T19:35:20.938Z,12.10
2022-11-05T19:37:53.608Z,14.10
2022-11-05T19:40:24.325Z,14.00
2022-11-05T19:42:55.025Z,13.00
2022-11-05T19:48:19.731Z,11.80
2022-11-05T19:50:51.000Z,13.20
2022-11-05T19:53:21.691Z,14.50
2022-11-05T19:55:52.286Z,13.60
2022-11-05T19:58:22.898Z,11.90
2022-11-05T20:00:56.042Z,13.90
2022-11-05T20:03:26.761Z,17.60
2022-11-05T20:06:02.449Z,14.40
2022-11-05T20:08:39.773Z,16.30
2022-11-05T20:13:53.202Z,10.80
2022-11-05T20:16:27.225Z,14.90
2022-11-05T20:18:58.133Z,14.90
2022-11-05T20:21:30.137Z,16.20
2022-11-05T20:24:00.824Z,14.20
2022-11-05T20:26:32.090Z,18.20
2022-11-05T20:29:02.822Z,15.70
2022-11-05T20:31:33.618Z,16.40
2022-11-05T20:34:04.310Z,15.60
2022-11-05T20:36:35.038Z,15.20
2022-11-05T20:39:06.093Z,13.90
2022-11-05T20:41:36.787Z,13.90
2022-11-05T20:44:07.572Z,21.20
2022-11-05T20:46:38.262Z,16.50
2022-11-05T20:49:09.162Z,17.20
2022-11-05T20:51:39.895Z,16.80
2022-11-05T20:54:10.869Z,13.10
2022-11-05T20:56:42.904Z,13.80
2022-11-05T20:59:14.016Z,19.80
2022-11-05T21:01:45.012Z,16.20
2022-11-05T21:04:15.837Z,18.00
2022-11-05T21:06:46.575Z,15.20
2022-11-05T21:09:17.248Z,13.00
2022-11-05T21:12:05.822Z,14.30
2022-11-05T21:14:36.450Z,14.10
2022-11-05T21:17:08.145Z,11.80
2022-11-05T21:19:39.658Z,17.00
2022-11-05T21:22:10.235Z,13.10
2022-11-05T21:24:42.661Z,13.30
2022-11-05T21:27:13.299Z,12.90
2022-11-05T21:29:44.005Z,13.00
2022-11-05T21:32:14.967Z,12.30
2022-11-05T21:34:46.147Z,12.70
2022-11-05T21:37:16.753Z,13.60
2022-11-05T21:39:47.781Z,13.00
2022-11-05T21:42:18.433Z,10.70
2022-11-05T21:44:49.279Z,13.80
2022-11-05T21:47:20.203Z,11.60
2022-11-05T21:49:51.202Z,11.40
2022-11-05T21:52:39.633Z,10.60
2022-11-05T21:55:35.478Z,12.50
2022-11-05T21:58:30.584Z,11.80
2022-11-05T22:01:02.089Z,8.30
2022-11-05T22:03:32.855Z,9.50
2022-11-05T22:06:03.574Z,10.80
2022-11-05T22:08:34.200Z,12.20
2022-11-05T22:11:07.159Z,10.00
2022-11-05T22:13:37.725Z,12.50
2022-11-05T22:16:10.091Z,15.00
2022-11-05T22:18:40.864Z,9.20
2022-11-05T22:21:15.827Z,12.60
2022-11-05T22:23:46.567Z,11.10
2022-11-05T22:26:17.583Z,12.50
2022-11-05T22:28:48.310Z,10.20
2022-11-05T22:31:19.516Z,8.70
2022-11-05T22:33:50.802Z,9.10
2022-11-05T22:36:21.672Z,9.30
2022-11-05T22:38:52.508Z,8.50
2022-11-05T22:41:24.009Z,9.00
2022-11-05T22:43:54.641Z,10.30
2022-11-05T22:46:27.141Z,8.20
2022-11-05T22:48:58.321Z,8.70
2022-11-05T22:51:31.714Z,8.70
2022-11-05T22:54:03.369Z,8.30
2022-11-05T22:56:37.941Z,9.90
2022-11-05T22:59:11.999Z,7.80
2022-11-05T23:01:44.077Z,8.30
2022-11-05T23:04:16.289Z,8.50
2022-11-05T23:07:16.261Z,9.80
2022-11-05T23:10:04.985Z,7.80
2022-11-05T23:12:37.992Z,5.30
2022-11-05T23:15:31.324Z,5.50
2022-11-05T23:18:19.697Z,6.50
2022-11-05T23:21:07.871Z,6.30
2022-11-05T23:23:56.194Z,7.00
2022-11-05T23:26:44.913Z,6.20
2022-11-05T23:29:15.590Z,10.80
2022-11-05T23:32:03.956Z,6.80
2022-11-05T23:34:34.815Z,7.50
2022-11-05T23:37:23.698Z,10.00
2022-11-05T23:39:54.717Z,6.70
2022-11-05T23:42:43.047Z,7.80
2022-11-05T23:45:31.884Z,12.70
2022-11-05T23:48:17.976Z,19.90
2022-11-05T23:50:52.043Z,11.30
2022-11-05T23:53:22.985Z,7.70
2022-11-05T23:55:53.777Z,14.40
2022-11-05T23:58:24.470Z,6.20
